sensor_id;sensor_type;location;lat;lon;timestamp;P1;durP1;ratioP1;P2;durP2;ratioP2
19891;SDS011;10108;50.142;8.724;2022-12-20T00:00:48;68.90;;;35.90;;
19891;SDS011;10108;50.142;8.724;2022-12-20T00:03:14;58.33;;;33.03;;
19891;SDS011;10108;50.142;8.724;2022-12-20T00:05:41;60.30;;;32.08;;
19891;SDS011;10108;50.142;8.724;2022-12-20T00:08:08;56.38;;;33.17;;
19891;SDS011;10108;50.142;8.724;2022-12-20T00:10:35;64.55;;;33.72;;
19891;SDS011;10108;50.142;8.724;2022-12-20T00:13:02;58.15;;;33.03;;
19891;SDS011;10108;50.142;8.724;2022-12-20T00:15:29;54.17;;;31.48;;
19891;SDS011;10108;50.142;8.724;2022-12-20T00:17:56;56.60;;;31.67;;
19891;SDS011;10108;50.142;8.724;2022-12-20T00:20:22;59.83;;;32.20;;
19891;SDS011;10108;50.142;8.724;2022-12-20T00:22:49;54.65;;;31.73;;
19891;SDS011;10108;50.142;8.724;2022-12-20T00:25:15;59.50;;;31.95;;
19891;SDS011;10108;50.142;8.724;2022-12-20T00:27:41;50.90;;;31.13;;
19891;SDS011;10108;50.142;8.724;2022-12-20T00:30:07;57.22;;;30.02;;
19891;SDS011;10108;50.142;8.724;2022-12-20T00:32:34;52.38;;;29.13;;
19891;SDS011;10108;50.142;8.724;2022-12-20T00:35:00;54.15;;;30.25;;
19891;SDS011;10108;50.142;8.724;2022-12-20T00:37:26;50.72;;;31.15;;
19891;SDS011;10108;50.142;8.724;2022-12-20T00:39:52;51.63;;;30.17;;
19891;SDS011;10108;50.142;8.724;2022-12-20T00:42:18;56.63;;;31.15;;
19891;SDS011;10108;50.142;8.724;2022-12-20T00:44:44;61.97;;;33.40;;
19891;SDS011;10108;50.142;8.724;2022-12-20T00:47:10;55.85;;;31.75;;
19891;SDS011;10108;50.142;8.724;2022-12-20T00:49:36;54.95;;;29.80;;
19891;SDS011;10108;50.142;8.724;2022-12-20T00:52:03;54.22;;;31.10;;
19891;SDS011;10108;50.142;8.724;2022-12-20T00:54:29;52.15;;;31.08;;
19891;SDS011;10108;50.142;8.724;2022-12-20T00:56:55;60.45;;;31.70;;
19891;SDS011;10108;50.142;8.724;2022-12-20T00:59:21;58.67;;;32.03;;
19891;SDS011;10108;50.142;8.724;2022-12-20T01:01:50;51.58;;;29.63;;
19891;SDS011;10108;50.142;8.724;2022-12-20T01:04:18;63.05;;;32.78;;
19891;SDS011;10108;50.142;8.724;2022-12-20T01:06:44;58.97;;;32.42;;
19891;SDS011;10108;50.142;8.724;2022-12-20T01:09:10;53.67;;;32.50;;
19891;SDS011;10108;50.142;8.724;2022-12-20T01:11:37;60.10;;;33.25;;
19891;SDS011;10108;50.142;8.724;2022-12-20T01:14:05;57.63;;;32.58;;
19891;SDS011;10108;50.142;8.724;2022-12-20T01:16:38;58.20;;;32.63;;
19891;SDS011;10108;50.142;8.724;2022-12-20T01:19:07;59.13;;;31.88;;
19891;SDS011;10108;50.142;8.724;2022-12-20T01:21:35;61.40;;;31.35;;
19891;SDS011;10108;50.142;8.724;2022-12-20T01:24:01;53.65;;;30.70;;
19891;SDS011;10108;50.142;8.724;2022-12-20T01:26:28;52.63;;;31.15;;
19891;SDS011;10108;50.142;8.724;2022-12-20T01:28:56;53.85;;;31.25;;
19891;SDS011;10108;50.142;8.724;2022-12-20T01:31:24;51.72;;;31.10;;
19891;SDS011;10108;50.142;8.724;2022-12-20T01:33:51;59.40;;;32.03;;
19891;SDS011;10108;50.142;8.724;2022-12-20T01:36:21;53.78;;;29.92;;
19891;SDS011;10108;50.142;8.724;2022-12-20T01:38:49;61.30;;;32.78;;
19891;SDS011;10108;50.142;8.724;2022-12-20T01:41:20;59.20;;;32.08;;
19891;SDS011;10108;50.142;8.724;2022-12-20T01:43:51;56.28;;;31.33;;
19891;SDS011;10108;50.142;8.724;2022-12-20T01:46:20;57.00;;;31.60;;
19891;SDS011;10108;50.142;8.724;2022-12-20T01:49:35;53.67;;;31.35;;
19891;SDS011;10108;50.142;8.724;2022-12-20T01:51:41;60.85;;;32.15;;
19891;SDS011;10108;50.142;8.724;2022-12-20T01:54:11;62.05;;;32.38;;
19891;SDS011;10108;50.142;8.724;2022-12-20T01:56:46;56.85;;;32.17;;
19891;SDS011;10108;50.142;8.724;2022-12-20T01:59:18;51.33;;;30.42;;
19891;SDS011;10108;50.142;8.724;2022-12-20T02:01:44;55.65;;;31.35;;
19891;SDS011;10108;50.142;8.724;2022-12-20T02:04:11;60.75;;;31.52;;
19891;SDS011;10108;50.142;8.724;2022-12-20T02:06:37;57.17;;;31.92;;
19891;SDS011;10108;50.142;8.724;2022-12-20T02:09:03;53.78;;;31.23;;
19891;SDS011;10108;50.142;8.724;2022-12-20T02:11:38;57.28;;;31.83;;
19891;SDS011;10108;50.142;8.724;2022-12-20T02:14:17;50.47;;;29.95;;
19891;SDS011;10108;50.142;8.724;2022-12-20T02:28:29;55.97;;;31.20;;
19891;SDS011;10108;50.142;8.724;2022-12-20T02:31:18;59.15;;;32.53;;
19891;SDS011;10108;50.142;8.724;2022-12-20T02:33:50;51.72;;;29.45;;
19891;SDS011;10108;50.142;8.724;2022-12-20T02:36:18;55.58;;;30.70;;
19891;SDS011;10108;50.142;8.724;2022-12-20T02:38:47;50.60;;;29.27;;
19891;SDS011;10108;50.142;8.724;2022-12-20T02:41:16;53.20;;;28.27;;
19891;SDS011;10108;50.142;8.724;2022-12-20T02:43:44;51.33;;;28.95;;
19891;SDS011;10108;50.142;8.724;2022-12-20T02:46:34;52.55;;;27.80;;
19891;SDS011;10108;50.142;8.724;2022-12-20T02:49:03;50.90;;;28.27;;
19891;SDS011;10108;50.142;8.724;2022-12-20T02:51:36;52.30;;;27.88;;
19891;SDS011;10108;50.142;8.724;2022-12-20T02:54:02;53.17;;;29.15;;
19891;SDS011;10108;50.142;8.724;2022-12-20T02:56:31;47.17;;;27.45;;
19891;SDS011;10108;50.142;8.724;2022-12-20T02:59:05;53.05;;;29.67;;
19891;SDS011;10108;50.142;8.724;2022-12-20T03:01:49;61.50;;;29.85;;
19891;SDS011;10108;50.142;8.724;2022-12-20T03:04:18;49.92;;;28.83;;
19891;SDS011;10108;50.142;8.724;2022-12-20T03:06:57;47.45;;;26.27;;
19891;SDS011;10108;50.142;8.724;2022-12-20T03:09:30;50.40;;;28.23;;
19891;SDS011;10108;50.142;8.724;2022-12-20T03:11:57;52.97;;;28.45;;
19891;SDS011;10108;50.142;8.724;2022-12-20T03:14:24;54.03;;;29.38;;
19891;SDS011;10108;50.142;8.724;2022-12-20T03:16:52;48.38;;;28.95;;
19891;SDS011;10108;50.142;8.724;2022-12-20T03:19:18;45.35;;;26.48;;
19891;SDS011;10108;50.142;8.724;2022-12-20T03:21:45;51.88;;;28.13;;
19891;SDS011;10108;50.142;8.724;2022-12-20T03:24:12;47.45;;;27.92;;
19891;SDS011;10108;50.142;8.724;2022-12-20T03:26:39;44.22;;;27.05;;
19891;SDS011;10108;50.142;8.724;2022-12-20T03:29:07;51.60;;;28.58;;
19891;SDS011;10108;50.142;8.724;2022-12-20T03:31:33;47.03;;;26.63;;
19891;SDS011;10108;50.142;8.724;2022-12-20T03:34:00;51.40;;;28.58;;
19891;SDS011;10108;50.142;8.724;2022-12-20T03:36:26;48.55;;;28.10;;
19891;SDS011;10108;50.142;8.724;2022-12-20T03:38:58;53.25;;;28.70;;
19891;SDS011;10108;50.142;8.724;2022-12-20T03:41:26;48.22;;;26.67;;
19891;SDS011;10108;50.142;8.724;2022-12-20T03:43:52;51.03;;;26.65;;
19891;SDS011;10108;50.142;8.724;2022-12-20T03:46:20;45.92;;;27.33;;
19891;SDS011;10108;50.142;8.724;2022-12-20T03:48:46;50.65;;;29.88;;
19891;SDS011;10108;50.142;8.724;2022-12-20T03:51:12;56.35;;;30.17;;
19891;SDS011;10108;50.142;8.724;2022-12-20T03:53:38;54.03;;;30.17;;
19891;SDS011;10108;50.142;8.724;2022-12-20T03:56:05;56.38;;;29.33;;
19891;SDS011;10108;50.142;8.724;2022-12-20T03:58:31;46.45;;;27.30;;
19891;SDS011;10108;50.142;8.724;2022-12-20T04:00:57;51.92;;;27.95;;
19891;SDS011;10108;50.142;8.724;2022-12-20T04:03:39;51.70;;;27.55;;
19891;SDS011;10108;50.142;8.724;2022-12-20T04:06:05;44.92;;;27.45;;
19891;SDS011;10108;50.142;8.724;2022-12-20T04:08:32;45.35;;;27.25;;
19891;SDS011;10108;50.142;8.724;2022-12-20T04:10:58;48.08;;;27.45;;
19891;SDS011;10108;50.142;8.724;2022-12-20T04:13:58;54.50;;;29.30;;
19891;SDS011;10108;50.142;8.724;2022-12-20T04:16:25;51.10;;;29.27;;
19891;SDS011;10108;50.142;8.724;2022-12-20T04:18:53;49.45;;;28.83;;
19891;SDS011;10108;50.142;8.724;2022-12-20T04:21:21;51.15;;;27.98;;
19891;SDS011;10108;50.142;8.724;2022-12-20T04:23:50;53.42;;;29.20;;
19891;SDS011;10108;50.142;8.724;2022-12-20T04:26:16;49.50;;;28.85;;
19891;SDS011;10108;50.142;8.724;2022-12-20T04:28:44;47.63;;;27.77;;
19891;SDS011;10108;50.142;8.724;2022-12-20T04:31:11;48.03;;;27.17;;
19891;SDS011;10108;50.142;8.724;2022-12-20T04:33:38;46.38;;;28.17;;
19891;SDS011;10108;50.142;8.724;2022-12-20T04:36:05;49.42;;;26.48;;
19891;SDS011;10108;50.142;8.724;2022-12-20T04:38:33;45.90;;;28.27;;
19891;SDS011;10108;50.142;8.724;2022-12-20T04:41:00;47.40;;;27.85;;
19891;SDS011;10108;50.142;8.724;2022-12-20T04:43:33;47.47;;;26.75;;
19891;SDS011;10108;50.142;8.724;2022-12-20T04:45:59;49.85;;;27.67;;
19891;SDS011;10108;50.142;8.724;2022-12-20T04:48:26;51.50;;;26.75;;
19891;SDS011;10108;50.142;8.724;2022-12-20T04:50:54;50.05;;;26.52;;
19891;SDS011;10108;50.142;8.724;2022-12-20T04:53:22;45.08;;;26.27;;
19891;SDS011;10108;50.142;8.724;2022-12-20T04:56:07;46.88;;;27.13;;
19891;SDS011;10108;50.142;8.724;2022-12-20T04:58:34;44.75;;;25.63;;
19891;SDS011;10108;50.142;8.724;2022-12-20T05:01:02;44.97;;;26.45;;
19891;SDS011;10108;50.142;8.724;2022-12-20T05:03:35;47.50;;;27.10;;
19891;SDS011;10108;50.142;8.724;2022-12-20T05:06:02;52.45;;;27.42;;
19891;SDS011;10108;50.142;8.724;2022-12-20T05:08:28;48.47;;;26.92;;
19891;SDS011;10108;50.142;8.724;2022-12-20T05:10:55;48.53;;;27.80;;
19891;SDS011;10108;50.142;8.724;2022-12-20T05:13:22;44.13;;;26.85;;
19891;SDS011;10108;50.142;8.724;2022-12-20T05:15:52;47.38;;;26.38;;
19891;SDS011;10108;50.142;8.724;2022-12-20T05:18:22;44.28;;;25.48;;
19891;SDS011;10108;50.142;8.724;2022-12-20T05:20:58;44.03;;;26.48;;
19891;SDS011;10108;50.142;8.724;2022-12-20T05:23:46;42.15;;;25.50;;
19891;SDS011;10108;50.142;8.724;2022-12-20T05:26:38;45.53;;;25.58;;
19891;SDS011;10108;50.142;8.724;2022-12-20T05:29:04;41.67;;;26.83;;
19891;SDS011;10108;50.142;8.724;2022-12-20T05:31:32;40.95;;;24.40;;
19891;SDS011;10108;50.142;8.724;2022-12-20T05:33:58;41.83;;;24.90;;
19891;SDS011;10108;50.142;8.724;2022-12-20T05:36:28;38.22;;;24.23;;
19891;SDS011;10108;50.142;8.724;2022-12-20T05:38:56;42.00;;;25.25;;
19891;SDS011;10108;50.142;8.724;2022-12-20T05:41:22;45.92;;;25.85;;
19891;SDS011;10108;50.142;8.724;2022-12-20T05:43:51;42.83;;;23.90;;
19891;SDS011;10108;50.142;8.724;2022-12-20T05:46:17;47.08;;;26.52;;
19891;SDS011;10108;50.142;8.724;2022-12-20T05:48:58;47.83;;;26.70;;
19891;SDS011;10108;50.142;8.724;2022-12-20T05:51:24;54.92;;;29.80;;
19891;SDS011;10108;50.142;8.724;2022-12-20T05:53:56;45.70;;;28.58;;
19891;SDS011;10108;50.142;8.724;2022-12-20T05:56:38;42.63;;;27.63;;
19891;SDS011;10108;50.142;8.724;2022-12-20T05:59:04;50.78;;;28.48;;
19891;SDS011;10108;50.142;8.724;2022-12-20T06:01:30;48.63;;;28.98;;
19891;SDS011;10108;50.142;8.724;2022-12-20T06:03:59;50.25;;;28.17;;
19891;SDS011;10108;50.142;8.724;2022-12-20T06:06:25;42.85;;;27.17;;
19891;SDS011;10108;50.142;8.724;2022-12-20T06:08:52;42.50;;;26.85;;
19891;SDS011;10108;50.142;8.724;2022-12-20T06:11:36;40.78;;;26.23;;
19891;SDS011;10108;50.142;8.724;2022-12-20T06:14:06;39.13;;;26.60;;
19891;SDS011;10108;50.142;8.724;2022-12-20T06:16:35;47.78;;;28.17;;
19891;SDS011;10108;50.142;8.724;2022-12-20T06:19:03;41.60;;;27.08;;
19891;SDS011;10108;50.142;8.724;2022-12-20T06:21:29;45.88;;;28.27;;
19891;SDS011;10108;50.142;8.724;2022-12-20T06:23:56;42.72;;;27.42;;
19891;SDS011;10108;50.142;8.724;2022-12-20T06:26:22;44.33;;;27.90;;
19891;SDS011;10108;50.142;8.724;2022-12-20T06:28:49;46.40;;;29.08;;
19891;SDS011;10108;50.142;8.724;2022-12-20T06:31:33;49.30;;;29.33;;
19891;SDS011;10108;50.142;8.724;2022-12-20T06:33:59;45.50;;;29.40;;
19891;SDS011;10108;50.142;8.724;2022-12-20T06:36:31;45.20;;;28.38;;
19891;SDS011;10108;50.142;8.724;2022-12-20T06:38:57;43.13;;;27.85;;
19891;SDS011;10108;50.142;8.724;2022-12-20T06:41:23;40.95;;;27.20;;
19891;SDS011;10108;50.142;8.724;2022-12-20T06:43:50;45.25;;;28.63;;
19891;SDS011;10108;50.142;8.724;2022-12-20T06:46:17;51.75;;;29.55;;
19891;SDS011;10108;50.142;8.724;2022-12-20T06:48:44;49.25;;;30.02;;
19891;SDS011;10108;50.142;8.724;2022-12-20T06:51:11;48.95;;;30.00;;
19891;SDS011;10108;50.142;8.724;2022-12-20T06:53:37;58.38;;;32.97;;
19891;SDS011;10108;50.142;8.724;2022-12-20T06:56:03;49.35;;;29.33;;
19891;SDS011;10108;50.142;8.724;2022-12-20T06:58:30;49.40;;;29.73;;
19891;SDS011;10108;50.142;8.724;2022-12-20T07:00:57;50.10;;;29.17;;
19891;SDS011;10108;50.142;8.724;2022-12-20T07:03:23;47.88;;;28.95;;
19891;SDS011;10108;50.142;8.724;2022-12-20T07:05:52;47.28;;;28.45;;
19891;SDS011;10108;50.142;8.724;2022-12-20T07:08:22;50.65;;;30.45;;
19891;SDS011;10108;50.142;8.724;2022-12-20T07:10:49;54.10;;;28.15;;
19891;SDS011;10108;50.142;8.724;2022-12-20T07:13:17;48.33;;;28.00;;
19891;SDS011;10108;50.142;8.724;2022-12-20T07:15:44;44.72;;;28.45;;
19891;SDS011;10108;50.142;8.724;2022-12-20T07:18:10;47.20;;;27.73;;
19891;SDS011;10108;50.142;8.724;2022-12-20T07:20:36;58.42;;;33.33;;
19891;SDS011;10108;50.142;8.724;2022-12-20T07:23:03;46.63;;;27.10;;
19891;SDS011;10108;50.142;8.724;2022-12-20T07:25:29;47.58;;;27.23;;
19891;SDS011;10108;50.142;8.724;2022-12-20T07:27:55;43.67;;;26.77;;
19891;SDS011;10108;50.142;8.724;2022-12-20T07:30:21;45.63;;;25.08;;
19891;SDS011;10108;50.142;8.724;2022-12-20T07:32:47;44.47;;;26.92;;
19891;SDS011;10108;50.142;8.724;2022-12-20T07:35:14;46.92;;;26.02;;
19891;SDS011;10108;50.142;8.724;2022-12-20T07:37:40;40.65;;;24.60;;
19891;SDS011;10108;50.142;8.724;2022-12-20T07:40:06;43.88;;;25.08;;
19891;SDS011;10108;50.142;8.724;2022-12-20T07:42:33;45.63;;;26.02;;
19891;SDS011;10108;50.142;8.724;2022-12-20T07:45:00;40.95;;;24.63;;
19891;SDS011;10108;50.142;8.724;2022-12-20T07:47:27;39.05;;;24.02;;
19891;SDS011;10108;50.142;8.724;2022-12-20T07:49:54;39.90;;;23.10;;
19891;SDS011;10108;50.142;8.724;2022-12-20T07:52:20;39.08;;;22.98;;
19891;SDS011;10108;50.142;8.724;2022-12-20T07:54:52;42.33;;;25.08;;
19891;SDS011;10108;50.142;8.724;2022-12-20T07:57:22;40.10;;;23.13;;
19891;SDS011;10108;50.142;8.724;2022-12-20T07:59:53;44.35;;;23.65;;
19891;SDS011;10108;50.142;8.724;2022-12-20T08:02:26;40.10;;;22.50;;
19891;SDS011;10108;50.142;8.724;2022-12-20T08:04:59;42.92;;;23.58;;
19891;SDS011;10108;50.142;8.724;2022-12-20T08:07:28;37.90;;;23.60;;
19891;SDS011;10108;50.142;8.724;2022-12-20T08:09:55;41.30;;;22.83;;
19891;SDS011;10108;50.142;8.724;2022-12-20T08:12:22;42.75;;;24.90;;
19891;SDS011;10108;50.142;8.724;2022-12-20T08:14:49;40.97;;;23.17;;
19891;SDS011;10108;50.142;8.724;2022-12-20T08:17:20;42.03;;;23.38;;
19891;SDS011;10108;50.142;8.724;2022-12-20T08:19:47;38.03;;;21.77;;
19891;SDS011;10108;50.142;8.724;2022-12-20T08:22:19;37.20;;;22.70;;
19891;SDS011;10108;50.142;8.724;2022-12-20T08:24:45;36.53;;;21.90;;
19891;SDS011;10108;50.142;8.724;2022-12-20T08:27:11;38.85;;;22.48;;
19891;SDS011;10108;50.142;8.724;2022-12-20T08:29:37;35.20;;;22.20;;
19891;SDS011;10108;50.142;8.724;2022-12-20T08:32:03;35.80;;;22.08;;
19891;SDS011;10108;50.142;8.724;2022-12-20T08:34:30;42.00;;;24.38;;
19891;SDS011;10108;50.142;8.724;2022-12-20T08:36:56;40.25;;;23.88;;
19891;SDS011;10108;50.142;8.724;2022-12-20T08:39:22;40.33;;;22.27;;
19891;SDS011;10108;50.142;8.724;2022-12-20T08:41:48;36.25;;;21.25;;
19891;SDS011;10108;50.142;8.724;2022-12-20T08:44:14;39.15;;;22.75;;
19891;SDS011;10108;50.142;8.724;2022-12-20T08:46:40;41.17;;;24.05;;
19891;SDS011;10108;50.142;8.724;2022-12-20T08:49:06;36.33;;;21.48;;
19891;SDS011;10108;50.142;8.724;2022-12-20T08:51:32;37.17;;;21.33;;
19891;SDS011;10108;50.142;8.724;2022-12-20T08:53:58;39.90;;;22.95;;
19891;SDS011;10108;50.142;8.724;2022-12-20T08:56:24;41.90;;;24.52;;
19891;SDS011;10108;50.142;8.724;2022-12-20T08:58:51;39.95;;;24.13;;
19891;SDS011;10108;50.142;8.724;2022-12-20T09:01:17;42.67;;;24.27;;
19891;SDS011;10108;50.142;8.724;2022-12-20T09:03:45;39.15;;;23.50;;
19891;SDS011;10108;50.142;8.724;2022-12-20T09:06:13;39.90;;;23.83;;
19891;SDS011;10108;50.142;8.724;2022-12-20T09:08:40;37.03;;;22.80;;
19891;SDS011;10108;50.142;8.724;2022-12-20T09:11:14;40.67;;;23.45;;
19891;SDS011;10108;50.142;8.724;2022-12-20T09:13:44;38.30;;;23.13;;
19891;SDS011;10108;50.142;8.724;2022-12-20T09:16:12;39.75;;;22.63;;
19891;SDS011;10108;50.142;8.724;2022-12-20T09:18:40;42.15;;;23.58;;
19891;SDS011;10108;50.142;8.724;2022-12-20T09:21:07;46.88;;;26.83;;
19891;SDS011;10108;50.142;8.724;2022-12-20T09:23:35;46.72;;;26.30;;
19891;SDS011;10108;50.142;8.724;2022-12-20T09:26:05;40.15;;;23.90;;
19891;SDS011;10108;50.142;8.724;2022-12-20T09:28:33;37.83;;;22.35;;
19891;SDS011;10108;50.142;8.724;2022-12-20T09:31:00;37.10;;;21.75;;
19891;SDS011;10108;50.142;8.724;2022-12-20T09:33:28;36.03;;;22.17;;
19891;SDS011;10108;50.142;8.724;2022-12-20T09:35:55;37.10;;;21.50;;
19891;SDS011;10108;50.142;8.724;2022-12-20T09:38:22;34.13;;;19.95;;
19891;SDS011;10108;50.142;8.724;2022-12-20T09:40:49;36.25;;;21.02;;
19891;SDS011;10108;50.142;8.724;2022-12-20T09:43:17;37.38;;;20.40;;
19891;SDS011;10108;50.142;8.724;2022-12-20T09:45:45;37.28;;;19.65;;
19891;SDS011;10108;50.142;8.724;2022-12-20T09:48:16;35.75;;;21.13;;
19891;SDS011;10108;50.142;8.724;2022-12-20T09:50:48;40.17;;;20.70;;
19891;SDS011;10108;50.142;8.724;2022-12-20T09:53:36;35.22;;;21.13;;
19891;SDS011;10108;50.142;8.724;2022-12-20T09:59:14;36.10;;;20.33;;
19891;SDS011;10108;50.142;8.724;2022-12-20T10:01:44;32.53;;;19.63;;
19891;SDS011;10108;50.142;8.724;2022-12-20T10:06:55;36.88;;;22.10;;
19891;SDS011;10108;50.142;8.724;2022-12-20T10:15:12;31.75;;;19.67;;
19891;SDS011;10108;50.142;8.724;2022-12-20T10:17:46;34.33;;;19.58;;
19891;SDS011;10108;50.142;8.724;2022-12-20T10:23:19;34.53;;;21.08;;
19891;SDS011;10108;50.142;8.724;2022-12-20T10:26:04;31.98;;;20.08;;
19891;SDS011;10108;50.142;8.724;2022-12-20T10:28:35;32.63;;;19.13;;
19891;SDS011;10108;50.142;8.724;2022-12-20T10:31:02;37.40;;;20.65;;
19891;SDS011;10108;50.142;8.724;2022-12-20T10:33:32;46.78;;;27.00;;
19891;SDS011;10108;50.142;8.724;2022-12-20T10:38:47;35.53;;;21.05;;
19891;SDS011;10108;50.142;8.724;2022-12-20T10:41:16;31.60;;;19.92;;
19891;SDS011;10108;50.142;8.724;2022-12-20T10:43:45;34.60;;;20.58;;
19891;SDS011;10108;50.142;8.724;2022-12-20T10:46:13;37.25;;;20.88;;
19891;SDS011;10108;50.142;8.724;2022-12-20T10:48:44;40.60;;;22.75;;
19891;SDS011;10108;50.142;8.724;2022-12-20T10:51:16;37.78;;;21.73;;
19891;SDS011;10108;50.142;8.724;2022-12-20T10:53:58;33.90;;;19.77;;
19891;SDS011;10108;50.142;8.724;2022-12-20T10:56:27;37.40;;;21.15;;
19891;SDS011;10108;50.142;8.724;2022-12-20T10:59:41;35.03;;;21.38;;
19891;SDS011;10108;50.142;8.724;2022-12-20T11:01:53;36.05;;;21.73;;
19891;SDS011;10108;50.142;8.724;2022-12-20T11:04:40;33.45;;;20.52;;
19891;SDS011;10108;50.142;8.724;2022-12-20T11:07:25;38.75;;;22.08;;
19891;SDS011;10108;50.142;8.724;2022-12-20T11:12:52;34.72;;;21.50;;
19891;SDS011;10108;50.142;8.724;2022-12-20T11:15:21;37.25;;;23.42;;
19891;SDS011;10108;50.142;8.724;2022-12-20T11:17:50;39.40;;;23.58;;
19891;SDS011;10108;50.142;8.724;2022-12-20T11:23:20;45.95;;;23.80;;
19891;SDS011;10108;50.142;8.724;2022-12-20T11:26:15;41.30;;;22.90;;
19891;SDS011;10108;50.142;8.724;2022-12-20T11:28:58;40.75;;;23.23;;
19891;SDS011;10108;50.142;8.724;2022-12-20T11:37:19;42.22;;;23.20;;
19891;SDS011;10108;50.142;8.724;2022-12-20T11:42:59;43.17;;;23.38;;
19891;SDS011;10108;50.142;8.724;2022-12-20T11:48:55;39.50;;;23.10;;
19891;SDS011;10108;50.142;8.724;2022-12-20T11:51:45;38.13;;;22.83;;
19891;SDS011;10108;50.142;8.724;2022-12-20T11:54:17;46.25;;;25.13;;
19891;SDS011;10108;50.142;8.724;2022-12-20T11:56:52;44.03;;;24.30;;
19891;SDS011;10108;50.142;8.724;2022-12-20T12:02:21;42.20;;;24.08;;
19891;SDS011;10108;50.142;8.724;2022-12-20T12:04:57;45.20;;;23.95;;
19891;SDS011;10108;50.142;8.724;2022-12-20T12:07:28;37.95;;;22.67;;
19891;SDS011;10108;50.142;8.724;2022-12-20T12:10:04;42.38;;;22.30;;
19891;SDS011;10108;50.142;8.724;2022-12-20T12:18:26;42.85;;;22.90;;
19891;SDS011;10108;50.142;8.724;2022-12-20T12:21:15;39.10;;;23.02;;
19891;SDS011;10108;50.142;8.724;2022-12-20T12:24:00;43.28;;;22.75;;
19891;SDS011;10108;50.142;8.724;2022-12-20T12:26:30;37.83;;;22.88;;
19891;SDS011;10108;50.142;8.724;2022-12-20T12:29:03;39.88;;;23.05;;
19891;SDS011;10108;50.142;8.724;2022-12-20T12:31:38;38.65;;;23.20;;
19891;SDS011;10108;50.142;8.724;2022-12-20T12:37:32;43.97;;;24.65;;
19891;SDS011;10108;50.142;8.724;2022-12-20T12:40:36;41.70;;;22.73;;
19891;SDS011;10108;50.142;8.724;2022-12-20T12:46:31;38.65;;;20.92;;
19891;SDS011;10108;50.142;8.724;2022-12-20T12:49:05;41.20;;;22.13;;
19891;SDS011;10108;50.142;8.724;2022-12-20T12:51:42;38.38;;;22.25;;
19891;SDS011;10108;50.142;8.724;2022-12-20T12:54:29;37.60;;;21.38;;
19891;SDS011;10108;50.142;8.724;2022-12-20T12:57:02;35.47;;;21.05;;
19891;SDS011;10108;50.142;8.724;2022-12-20T13:04:28;34.63;;;21.42;;
19891;SDS011;10108;50.142;8.724;2022-12-20T13:07:25;36.05;;;21.55;;
19891;SDS011;10108;50.142;8.724;2022-12-20T13:09:58;38.97;;;22.40;;
19891;SDS011;10108;50.142;8.724;2022-12-20T13:15:45;37.63;;;22.30;;
19891;SDS011;10108;50.142;8.724;2022-12-20T13:20:22;36.75;;;21.20;;
19891;SDS011;10108;50.142;8.724;2022-12-20T13:23:04;35.10;;;21.63;;
19891;SDS011;10108;50.142;8.724;2022-12-20T13:25:34;33.50;;;21.23;;
19891;SDS011;10108;50.142;8.724;2022-12-20T13:28:42;35.28;;;22.35;;
19891;SDS011;10108;50.142;8.724;2022-12-20T13:33:39;38.65;;;23.58;;
19891;SDS011;10108;50.142;8.724;2022-12-20T13:46:41;42.85;;;23.83;;
19891;SDS011;10108;50.142;8.724;2022-12-20T13:49:20;42.60;;;23.67;;
19891;SDS011;10108;50.142;8.724;2022-12-20T13:52:05;49.35;;;27.52;;
19891;SDS011;10108;50.142;8.724;2022-12-20T13:54:43;45.78;;;27.20;;
19891;SDS011;10108;50.142;8.724;2022-12-20T13:57:56;43.83;;;25.00;;
19891;SDS011;10108;50.142;8.724;2022-12-20T14:00:13;37.03;;;22.60;;
19891;SDS011;10108;50.142;8.724;2022-12-20T14:02:46;35.95;;;21.55;;
19891;SDS011;10108;50.142;8.724;2022-12-20T14:05:17;36.40;;;21.27;;
19891;SDS011;10108;50.142;8.724;2022-12-20T14:07:55;32.33;;;20.05;;
19891;SDS011;10108;50.142;8.724;2022-12-20T14:10:22;34.15;;;19.85;;
19891;SDS011;10108;50.142;8.724;2022-12-20T14:12:51;36.97;;;21.13;;
19891;SDS011;10108;50.142;8.724;2022-12-20T14:17:50;33.55;;;19.33;;
19891;SDS011;10108;50.142;8.724;2022-12-20T14:20:19;45.67;;;25.70;;
19891;SDS011;10108;50.142;8.724;2022-12-20T14:23:00;40.47;;;23.85;;
19891;SDS011;10108;50.142;8.724;2022-12-20T14:25:40;36.08;;;20.30;;
19891;SDS011;10108;50.142;8.724;2022-12-20T14:28:23;34.78;;;20.75;;
19891;SDS011;10108;50.142;8.724;2022-12-20T14:31:04;34.08;;;20.33;;
19891;SDS011;10108;50.142;8.724;2022-12-20T14:33:35;33.33;;;20.65;;
19891;SDS011;10108;50.142;8.724;2022-12-20T14:36:21;30.77;;;19.35;;
19891;SDS011;10108;50.142;8.724;2022-12-20T14:38:48;34.13;;;20.33;;
19891;SDS011;10108;50.142;8.724;2022-12-20T14:41:27;33.95;;;20.75;;
19891;SDS011;10108;50.142;8.724;2022-12-20T14:43:54;38.17;;;21.02;;
19891;SDS011;10108;50.142;8.724;2022-12-20T14:46:21;35.58;;;20.85;;
19891;SDS011;10108;50.142;8.724;2022-12-20T14:48:47;35.45;;;20.63;;
19891;SDS011;10108;50.142;8.724;2022-12-20T14:51:29;32.53;;;19.85;;
19891;SDS011;10108;50.142;8.724;2022-12-20T14:53:55;35.50;;;19.95;;
19891;SDS011;10108;50.142;8.724;2022-12-20T14:56:23;51.92;;;26.08;;
19891;SDS011;10108;50.142;8.724;2022-12-20T14:59:00;62.22;;;32.40;;
19891;SDS011;10108;50.142;8.724;2022-12-20T15:01:29;57.75;;;31.75;;
19891;SDS011;10108;50.142;8.724;2022-12-20T15:03:57;58.28;;;31.92;;
19891;SDS011;10108;50.142;8.724;2022-12-20T15:09:05;46.08;;;25.73;;
19891;SDS011;10108;50.142;8.724;2022-12-20T15:11:32;44.97;;;24.58;;
19891;SDS011;10108;50.142;8.724;2022-12-20T15:14:00;30.58;;;18.95;;
19891;SDS011;10108;50.142;8.724;2022-12-20T15:16:29;31.60;;;19.25;;
19891;SDS011;10108;50.142;8.724;2022-12-20T15:18:56;39.85;;;22.05;;
19891;SDS011;10108;50.142;8.724;2022-12-20T15:21:31;31.77;;;20.00;;
19891;SDS011;10108;50.142;8.724;2022-12-20T15:24:12;30.42;;;18.25;;
19891;SDS011;10108;50.142;8.724;2022-12-20T15:26:44;33.53;;;20.10;;
19891;SDS011;10108;50.142;8.724;2022-12-20T15:29:20;30.33;;;18.40;;
19891;SDS011;10108;50.142;8.724;2022-12-20T15:31:47;28.92;;;17.15;;
19891;SDS011;10108;50.142;8.724;2022-12-20T15:34:22;32.97;;;19.17;;
19891;SDS011;10108;50.142;8.724;2022-12-20T15:36:55;30.65;;;18.33;;
19891;SDS011;10108;50.142;8.724;2022-12-20T15:39:25;28.15;;;18.02;;
19891;SDS011;10108;50.142;8.724;2022-12-20T15:41:51;30.95;;;19.23;;
19891;SDS011;10108;50.142;8.724;2022-12-20T15:44:18;36.30;;;22.85;;
19891;SDS011;10108;50.142;8.724;2022-12-20T15:46:47;32.22;;;22.52;;
19891;SDS011;10108;50.142;8.724;2022-12-20T15:49:14;48.47;;;29.05;;
19891;SDS011;10108;50.142;8.724;2022-12-20T15:51:41;41.33;;;27.35;;
19891;SDS011;10108;50.142;8.724;2022-12-20T15:54:13;41.78;;;27.90;;
19891;SDS011;10108;50.142;8.724;2022-12-20T15:56:49;39.83;;;26.05;;
19891;SDS011;10108;50.142;8.724;2022-12-20T15:59:16;46.13;;;28.48;;
19891;SDS011;10108;50.142;8.724;2022-12-20T16:01:42;41.05;;;26.25;;
19891;SDS011;10108;50.142;8.724;2022-12-20T16:04:11;35.53;;;23.23;;
19891;SDS011;10108;50.142;8.724;2022-12-20T16:06:43;39.30;;;24.58;;
19891;SDS011;10108;50.142;8.724;2022-12-20T16:09:11;38.35;;;25.13;;
19891;SDS011;10108;50.142;8.724;2022-12-20T16:11:37;35.75;;;23.60;;